createdAt,value
2022-11-17T00:01:30.806Z,46.40
2022-11-17T00:04:01.809Z,46.10
2022-11-17T00:06:32.610Z,46.80
2022-11-17T00:09:06.476Z,46.70
2022-11-17T00:11:52.227Z,45.50
2022-11-17T00:14:39.533Z,45.70
2022-11-17T00:17:12.974Z,47.00
2022-11-17T00:19:56.180Z,47.40
2022-11-17T00:22:27.448Z,47.80
2022-11-17T00:25:08.737Z,49.30
2022-11-17T00:27:42.095Z,49.00
2022-11-17T00:30:34.291Z,50.80
2022-11-17T00:33:18.434Z,50.40
2022-11-17T00:35:54.657Z,53.20
2022-11-17T00:38:25.445Z,55.40
2022-11-17T00:40:59.428Z,62.50
2022-11-17T00:43:33.045Z,82.30
2022-11-17T00:46:04.489Z,74.00
2022-11-17T00:48:35.266Z,85.50
2022-11-17T00:51:07.210Z,91.50
2022-11-17T00:53:38.110Z,91.10
2022-11-17T00:56:11.525Z,99.80
2022-11-17T00:58:45.962Z,98.20
2022-11-17T01:01:17.207Z,99.90
2022-11-17T01:03:48.023Z,99.90
2022-11-17T01:06:23.115Z,99.90
2022-11-17T01:08:53.907Z,99.90
2022-11-17T01:11:28.279Z,99.90
2022-11-17T01:14:04.882Z,99.90
2022-11-17T01:16:36.157Z,99.90
2022-11-17T01:19:07.270Z,99.90
2022-11-17T01:21:38.074Z,97.70
2022-11-17T01:24:09.527Z,98.80
2022-11-17T01:26:42.613Z,93.60
2022-11-17T01:29:18.968Z,89.30
2022-11-17T01:31:54.065Z,83.80
2022-11-17T01:34:26.025Z,82.20
2022-11-17T01:37:09.359Z,75.10
2022-11-17T01:39:42.714Z,75.40
2022-11-17T01:42:17.537Z,80.80
2022-11-17T01:45:04.327Z,93.00
2022-11-17T01:47:42.424Z,98.90
2022-11-17T01:50:22.611Z,99.90
2022-11-17T01:52:56.455Z,99.90
2022-11-17T01:55:30.449Z,99.90
2022-11-17T01:58:06.362Z,99.90
2022-11-17T02:00:42.062Z,99.90
2022-11-17T02:03:13.054Z,99.90
2022-11-17T02:05:51.174Z,99.90
2022-11-17T02:08:25.035Z,99.90
2022-11-17T02:10:56.716Z,99.90
2022-11-17T02:13:29.002Z,99.90
2022-11-17T02:16:02.338Z,99.90
2022-11-17T02:18:33.924Z,99.90
2022-11-17T02:21:25.449Z,99.90
2022-11-17T02:24:23.486Z,99.90
2022-11-17T02:27:27.432Z,99.90
2022-11-17T02:30:08.335Z,99.90
2022-11-17T02:32:48.915Z,99.90
2022-11-17T02:35:27.011Z,99.90
2022-11-17T02:38:08.175Z,99.90
2022-11-17T02:40:46.563Z,99.90
2022-11-17T02:43:35.158Z,99.90
2022-11-17T02:46:11.800Z,99.90
2022-11-17T02:48:49.786Z,99.90
2022-11-17T02:51:25.013Z,99.90
2022-11-17T02:54:00.171Z,99.90
2022-11-17T02:56:33.280Z,99.90
2022-11-17T02:59:07.828Z,99.90
2022-11-17T03:01:58.039Z,99.90
2022-11-17T03:04:43.142Z,99.90
2022-11-17T03:07:27.117Z,99.90
2022-11-17T03:10:13.281Z,99.90
2022-11-17T03:12:52.715Z,99.90
2022-11-17T03:15:30.536Z,99.90
2022-11-17T03:18:10.280Z,99.90
2022-11-17T03:20:51.655Z,99.90
2022-11-17T03:23:26.554Z,99.90
2022-11-17T03:25:59.796Z,99.90
2022-11-17T03:28:33.264Z,99.90
2022-11-17T03:31:09.346Z,99.90
2022-11-17T03:33:44.496Z,99.90
2022-11-17T03:36:18.533Z,99.90
2022-11-17T03:38:55.955Z,99.90
2022-11-17T03:41:28.499Z,99.90
2022-11-17T03:44:00.432Z,99.90
2022-11-17T03:46:33.014Z,99.90
2022-11-17T03:49:12.965Z,99.90
2022-11-17T03:51:50.742Z,99.90
2022-11-17T03:54:21.742Z,99.90
2022-11-17T03:56:58.437Z,99.90
2022-11-17T03:59:34.128Z,99.90
2022-11-17T04:02:05.312Z,99.90
2022-11-17T04:04:50.958Z,99.90
2022-11-17T04:07:21.737Z,99.90
2022-11-17T04:09:55.324Z,99.90
2022-11-17T04:12:38.671Z,99.90
2022-11-17T04:15:23.044Z,99.90
2022-11-17T04:17:56.926Z,99.90
2022-11-17T04:20:37.467Z,99.90
2022-11-17T04:23:11.634Z,99.90
2022-11-17T04:25:57.080Z,99.90
2022-11-17T04:28:41.612Z,99.90
2022-11-17T04:31:16.061Z,99.90
2022-11-17T04:33:50.427Z,99.90
2022-11-17T04:36:25.517Z,99.90
2022-11-17T04:39:00.541Z,99.90
2022-11-17T04:41:45.955Z,99.90
2022-11-17T04:44:19.082Z,99.90
2022-11-17T04:46:49.873Z,99.90
2022-11-17T04:49:22.039Z,99.90
2022-11-17T04:51:56.610Z,99.90
2022-11-17T04:54:39.084Z,99.90
2022-11-17T04:57:10.089Z,99.90
2022-11-17T04:59:40.862Z,99.90
2022-11-17T05:02:11.766Z,99.90
2022-11-17T05:04:55.232Z,99.90
2022-11-17T05:07:28.694Z,99.90
2022-11-17T05:10:02.033Z,99.90
2022-11-17T05:12:47.355Z,99.90
2022-11-17T05:15:38.296Z,99.90
2022-11-17T05:18:06.762Z,99.90
2022-11-17T05:20:37.501Z,99.90
2022-11-17T05:23:23.404Z,99.90
2022-11-17T05:25:56.716Z,99.90
2022-11-17T05:28:27.492Z,99.90
2022-11-17T05:30:58.282Z,99.90
2022-11-17T05:33:32.356Z,99.90
2022-11-17T05:36:08.000Z,99.90
2022-11-17T05:38:43.005Z,99.90
2022-11-17T05:41:14.936Z,99.90
2022-11-17T05:43:48.348Z,99.90
2022-11-17T05:46:20.618Z,99.90
2022-11-17T05:48:52.915Z,99.90
2022-11-17T05:51:25.423Z,99.90
2022-11-17T05:54:00.006Z,99.90
2022-11-17T05:56:38.251Z,99.90
2022-11-17T05:59:23.404Z,99.90
2022-11-17T06:02:03.190Z,99.90
2022-11-17T06:04:34.375Z,99.90
2022-11-17T06:07:05.744Z,99.90
2022-11-17T06:09:42.869Z,99.90
2022-11-17T06:12:18.156Z,99.90
2022-11-17T06:14:48.995Z,99.90
2022-11-17T06:17:26.349Z,99.90
2022-11-17T06:20:00.056Z,99.90
2022-11-17T06:22:34.102Z,99.90
2022-11-17T06:25:10.663Z,99.90
2022-11-17T06:27:44.160Z,99.90
2022-11-17T06:30:15.441Z,99.90
2022-11-17T06:32:47.613Z,99.90
2022-11-17T06:35:29.584Z,99.90
2022-11-17T06:38:01.582Z,99.90
2022-11-17T06:40:35.321Z,99.90
2022-11-17T06:43:16.578Z,99.90
2022-11-17T06:45:48.805Z,99.90
2022-11-17T06:48:26.894Z,99.90
2022-11-17T06:50:58.813Z,99.90
2022-11-17T06:53:31.459Z,99.90
2022-11-17T06:56:09.686Z,99.90
2022-11-17T06:58:42.598Z,99.90
2022-11-17T07:01:15.769Z,99.90
2022-11-17T07:03:46.578Z,99.90
2022-11-17T07:06:19.409Z,99.90
2022-11-17T07:08:50.849Z,99.90
2022-11-17T07:11:24.462Z,99.90
2022-11-17T07:13:55.196Z,99.90
2022-11-17T07:16:26.154Z,99.90
2022-11-17T07:18:59.478Z,99.90
2022-11-17T07:21:35.492Z,99.90
2022-11-17T07:24:07.683Z,99.90
2022-11-17T07:26:41.025Z,99.90
2022-11-17T07:29:14.791Z,99.90
2022-11-17T07:31:46.044Z,99.90
2022-11-17T07:34:16.830Z,99.90
2022-11-17T07:36:47.802Z,99.90
2022-11-17T07:39:21.636Z,99.90
2022-11-17T07:41:57.284Z,99.90
2022-11-17T07:44:28.083Z,99.90
2022-11-17T07:46:58.931Z,99.90
2022-11-17T07:49:30.422Z,99.90
2022-11-17T07:52:03.201Z,99.90
2022-11-17T07:54:33.983Z,99.90
2022-11-17T07:57:08.868Z,99.90
2022-11-17T07:59:39.666Z,99.90
2022-11-17T08:02:12.618Z,99.90
2022-11-17T08:04:43.563Z,99.90
2022-11-17T08:07:17.330Z,99.90
2022-11-17T08:09:48.111Z,99.90
2022-11-17T08:12:23.962Z,99.90
2022-11-17T08:14:54.793Z,99.90
2022-11-17T08:17:25.934Z,99.90
2022-11-17T08:19:56.741Z,99.90
2022-11-17T08:22:27.517Z,99.90
2022-11-17T08:24:58.272Z,99.90
2022-11-17T08:27:31.698Z,99.90
2022-11-17T08:30:02.881Z,99.90
2022-11-17T08:32:33.620Z,99.90
2022-11-17T08:35:06.983Z,99.90
2022-11-17T08:37:37.715Z,99.90
2022-11-17T08:40:10.211Z,99.90
2022-11-17T08:42:44.345Z,99.90
2022-11-17T08:45:16.401Z,99.90
2022-11-17T08:47:47.182Z,99.90
2022-11-17T08:50:18.360Z,99.90
2022-11-17T08:52:49.322Z,99.90
2022-11-17T08:55:20.286Z,99.90
2022-11-17T08:57:53.697Z,99.90
2022-11-17T09:00:24.535Z,99.90
2022-11-17T09:02:55.897Z,99.90
2022-11-17T09:05:28.773Z,99.90
2022-11-17T09:08:22.375Z,99.90
2022-11-17T09:10:52.363Z,99.90
2022-11-17T09:13:25.767Z,99.90
2022-11-17T09:15:58.019Z,99.90
2022-11-17T09:18:28.730Z,99.90
2022-11-17T09:21:02.882Z,99.90
2022-11-17T09:23:34.392Z,99.90
2022-11-17T09:26:09.377Z,99.90
2022-11-17T09:28:44.136Z,99.90
2022-11-17T09:31:17.658Z,99.90
2022-11-17T09:33:49.175Z,99.90
2022-11-17T09:36:20.281Z,99.90
2022-11-17T09:38:51.116Z,99.90
2022-11-17T09:41:28.194Z,99.90
2022-11-17T09:44:24.106Z,99.90
2022-11-17T09:47:04.035Z,99.90
2022-11-17T09:49:45.412Z,99.90
2022-11-17T09:52:21.398Z,99.90
2022-11-17T09:54:58.652Z,99.90
2022-11-17T09:57:35.938Z,99.90
2022-11-17T10:00:16.903Z,99.90
2022-11-17T10:02:48.663Z,99.90
2022-11-17T10:05:27.680Z,99.90
2022-11-17T10:08:03.559Z,99.90
2022-11-17T10:10:40.031Z,99.90
2022-11-17T10:13:24.911Z,99.90
2022-11-17T10:16:03.544Z,99.90
2022-11-17T10:18:38.644Z,99.90
2022-11-17T10:21:11.077Z,99.90
2022-11-17T10:23:46.986Z,99.90
2022-11-17T10:26:19.037Z,99.90
2022-11-17T10:28:50.895Z,99.90
2022-11-17T10:31:24.267Z,99.90
2022-11-17T10:33:55.108Z,99.90
2022-11-17T10:36:28.965Z,99.90
2022-11-17T10:39:00.947Z,99.90
2022-11-17T10:41:38.831Z,99.90
2022-11-17T10:44:20.127Z,99.90
2022-11-17T10:47:03.110Z,99.90
2022-11-17T10:49:37.957Z,99.90
2022-11-17T10:52:16.826Z,99.90
2022-11-17T10:54:49.924Z,99.90
2022-11-17T10:57:24.187Z,99.90
2022-11-17T10:59:58.724Z,99.90
2022-11-17T11:02:37.012Z,99.90
2022-11-17T11:05:18.111Z,99.00
2022-11-17T11:07:51.898Z,92.30
2022-11-17T11:10:30.930Z,94.20
2022-11-17T11:13:09.306Z,91.20
2022-11-17T11:15:40.252Z,84.50
2022-11-17T11:18:16.219Z,84.80
2022-11-17T11:20:54.119Z,82.30
2022-11-17T11:23:37.224Z,75.00
2022-11-17T11:26:21.863Z,71.90
2022-11-17T11:29:06.394Z,75.20
2022-11-17T11:31:52.199Z,74.70
2022-11-17T11:34:51.522Z,72.90
2022-11-17T11:37:23.644Z,70.40
2022-11-17T11:40:06.128Z,74.10
2022-11-17T11:42:50.160Z,70.10
2022-11-17T11:45:37.604Z,72.20
2022-11-17T11:48:25.620Z,69.40
2022-11-17T11:51:01.550Z,75.20
2022-11-17T11:53:40.762Z,69.30
2022-11-17T11:56:18.399Z,70.20
2022-11-17T11:58:58.261Z,65.70
2022-11-17T12:01:31.266Z,60.80
2022-11-17T12:04:16.121Z,58.40
2022-11-17T12:06:56.832Z,63.20
2022-11-17T12:09:46.175Z,58.30
2022-11-17T12:12:19.096Z,52.90
2022-11-17T12:15:28.734Z,53.00
2022-11-17T12:18:05.238Z,51.10
2022-11-17T12:21:01.686Z,50.40
2022-11-17T12:24:08.031Z,50.40
2022-11-17T12:26:39.261Z,47.30
2022-11-17T12:29:33.466Z,45.00
2022-11-17T12:32:05.426Z,44.90
2022-11-17T12:34:38.176Z,45.80
2022-11-17T12:37:26.507Z,45.80
2022-11-17T12:40:07.916Z,45.10
2022-11-17T12:42:40.110Z,41.10
2022-11-17T12:45:15.206Z,42.40
2022-11-17T12:47:59.543Z,41.90
2022-11-17T12:50:53.981Z,39.60
2022-11-17T12:53:57.667Z,38.80
2022-11-17T12:56:59.759Z,39.70
2022-11-17T13:00:07.403Z,38.80
2022-11-17T13:02:50.393Z,38.70
2022-11-17T13:05:28.948Z,38.80
2022-11-17T13:08:25.145Z,37.30
2022-11-17T13:11:08.244Z,36.60
2022-11-17T13:13:47.012Z,36.90
2022-11-17T13:16:22.146Z,36.30
2022-11-17T13:18:53.940Z,38.00
2022-11-17T13:21:32.773Z,40.10
2022-11-17T13:24:03.545Z,39.60
2022-11-17T13:26:38.036Z,40.30
2022-11-17T13:29:15.288Z,41.90
2022-11-17T13:31:46.928Z,38.90
2022-11-17T13:34:21.190Z,40.80
2022-11-17T13:36:56.314Z,42.40
2022-11-17T13:39:28.161Z,42.10
2022-11-17T13:42:01.343Z,42.50
2022-11-17T13:44:35.969Z,42.80
2022-11-17T13:47:21.378Z,41.80
2022-11-17T13:49:52.211Z,40.50
2022-11-17T13:52:41.943Z,42.50
2022-11-17T13:55:20.693Z,44.70
2022-11-17T13:57:57.714Z,42.10
2022-11-17T14:00:33.629Z,40.40
2022-11-17T14:03:08.409Z,41.20
2022-11-17T14:05:39.177Z,42.50
2022-11-17T14:08:16.295Z,41.30
2022-11-17T14:10:47.146Z,41.10
2022-11-17T14:13:27.861Z,40.30
2022-11-17T14:16:02.936Z,38.60
2022-11-17T14:18:37.233Z,39.80
2022-11-17T14:21:10.538Z,37.80
2022-11-17T14:23:52.458Z,37.50
2022-11-17T14:26:25.157Z,34.00
2022-11-17T14:29:02.054Z,37.80
2022-11-17T14:31:35.714Z,38.70
2022-11-17T14:34:06.570Z,37.70
2022-11-17T14:36:41.563Z,38.70
2022-11-17T14:39:20.419Z,38.30
2022-11-17T14:41:53.198Z,38.10
2022-11-17T14:44:26.979Z,35.90
2022-11-17T14:47:00.379Z,35.20
2022-11-17T14:49:31.499Z,38.60
2022-11-17T14:52:02.877Z,37.90
2022-11-17T14:54:33.792Z,36.80
2022-11-17T14:57:05.891Z,34.00
2022-11-17T14:59:39.615Z,37.80
2022-11-17T15:02:15.153Z,35.80
2022-11-17T15:04:51.249Z,36.20
2022-11-17T15:07:22.860Z,34.00
2022-11-17T15:09:53.687Z,37.30
2022-11-17T15:12:24.748Z,35.40
2022-11-17T15:14:57.503Z,33.60
2022-11-17T15:17:31.416Z,34.00
2022-11-17T15:20:02.525Z,34.80
2022-11-17T15:22:37.701Z,36.10
2022-11-17T15:25:10.075Z,36.30
2022-11-17T15:27:43.493Z,35.70
2022-11-17T15:30:17.806Z,38.20
2022-11-17T15:32:51.607Z,34.70
2022-11-17T15:35:22.438Z,37.80
2022-11-17T15:37:54.369Z,36.50
2022-11-17T15:40:25.091Z,37.40
2022-11-17T15:42:56.132Z,36.30
2022-11-17T15:45:30.719Z,38.50
2022-11-17T15:48:04.082Z,37.50
2022-11-17T15:50:34.895Z,36.80
2022-11-17T15:53:05.867Z,37.40
2022-11-17T15:55:37.321Z,37.50
2022-11-17T15:58:08.110Z,39.60
2022-11-17T16:00:40.272Z,36.70
2022-11-17T16:03:13.711Z,37.40
2022-11-17T16:05:44.527Z,37.80
2022-11-17T16:08:17.797Z,36.90
2022-11-17T16:10:48.586Z,39.70
2022-11-17T16:13:19.447Z,37.80
2022-11-17T16:15:51.274Z,38.10
2022-11-17T16:18:26.158Z,37.00
2022-11-17T16:21:02.989Z,40.90
2022-11-17T16:23:40.999Z,39.40
2022-11-17T16:26:15.431Z,38.40
2022-11-17T16:28:46.886Z,38.80
2022-11-17T16:31:20.674Z,39.20
2022-11-17T16:33:58.419Z,39.00
2022-11-17T16:36:36.222Z,41.00
2022-11-17T16:39:15.362Z,39.70
2022-11-17T16:41:50.151Z,40.10
2022-11-17T16:44:21.505Z,40.20
2022-11-17T16:46:52.769Z,40.60
2022-11-17T16:49:26.282Z,42.80
2022-11-17T16:52:00.152Z,47.10
2022-11-17T16:54:31.160Z,54.00
2022-11-17T16:57:03.162Z,68.90
2022-11-17T16:59:37.253Z,59.80
2022-11-17T17:02:09.375Z,61.80
2022-11-17T17:04:44.262Z,63.90
2022-11-17T17:07:15.361Z,71.00
2022-11-17T17:09:46.413Z,77.30
2022-11-17T17:12:17.280Z,89.70
2022-11-17T17:14:48.075Z,91.30
2022-11-17T17:17:19.289Z,86.40
2022-11-17T17:19:52.614Z,91.40
2022-11-17T17:22:26.459Z,91.90
2022-11-17T17:25:15.036Z,91.30
2022-11-17T17:27:48.322Z,90.90
2022-11-17T17:30:19.334Z,87.60
2022-11-17T17:32:50.207Z,90.60
2022-11-17T17:35:23.594Z,88.30
2022-11-17T17:37:54.686Z,91.70
2022-11-17T17:40:26.167Z,88.70
2022-11-17T17:42:59.857Z,91.30
2022-11-17T17:45:30.685Z,94.30
2022-11-17T17:48:01.843Z,83.40
2022-11-17T17:50:36.529Z,84.20
2022-11-17T17:53:07.817Z,90.00
2022-11-17T17:55:38.814Z,83.50
2022-11-17T17:58:10.308Z,77.40
2022-11-17T18:00:43.889Z,74.30
2022-11-17T18:03:14.701Z,71.80
2022-11-17T18:05:48.747Z,74.40
2022-11-17T18:08:20.801Z,70.30
2022-11-17T18:10:53.275Z,68.20
2022-11-17T18:13:24.048Z,65.90
2022-11-17T18:15:55.121Z,64.70
2022-11-17T18:18:26.902Z,67.40
2022-11-17T18:21:11.568Z,63.60
2022-11-17T18:23:44.228Z,66.50
2022-11-17T18:26:18.332Z,65.40
2022-11-17T18:28:57.537Z,66.60
2022-11-17T18:31:33.421Z,63.60
2022-11-17T18:34:06.057Z,67.00
2022-11-17T18:36:39.553Z,63.40
2022-11-17T18:39:10.611Z,63.40
2022-11-17T18:41:43.824Z,64.90
2022-11-17T18:44:16.866Z,63.40
2022-11-17T18:46:48.119Z,65.40
2022-11-17T18:49:19.584Z,63.20
2022-11-17T18:51:56.547Z,63.20
2022-11-17T18:54:27.331Z,64.20
2022-11-17T18:57:00.041Z,66.90
2022-11-17T18:59:30.928Z,66.00
2022-11-17T19:02:04.303Z,64.10
2022-11-17T19:04:36.578Z,64.80
2022-11-17T19:07:09.973Z,64.60
2022-11-17T19:09:43.909Z,64.60
2022-11-17T19:12:15.178Z,65.60
2022-11-17T19:14:49.154Z,65.70
2022-11-17T19:17:22.612Z,68.10
2022-11-17T19:19:53.899Z,68.80
2022-11-17T19:22:27.248Z,67.80
2022-11-17T19:24:59.175Z,69.90
2022-11-17T19:27:30.026Z,69.60
2022-11-17T19:30:01.006Z,70.30
2022-11-17T19:32:31.965Z,69.00
2022-11-17T19:35:13.618Z,69.80
2022-11-17T19:37:51.089Z,71.50
2022-11-17T19:40:24.237Z,69.30
2022-11-17T19:42:55.185Z,72.10
2022-11-17T19:45:26.244Z,71.70
2022-11-17T19:47:57.328Z,71.70
2022-11-17T19:50:28.610Z,71.10
2022-11-17T19:53:05.079Z,72.00
2022-11-17T19:55:40.049Z,71.10
2022-11-17T19:58:11.858Z,72.90
2022-11-17T20:00:48.617Z,72.20
2022-11-17T20:03:19.758Z,72.10
2022-11-17T20:05:53.121Z,73.30
2022-11-17T20:08:26.418Z,71.00
2022-11-17T20:11:05.440Z,72.70
2022-11-17T20:13:36.857Z,72.10
2022-11-17T20:16:12.300Z,72.20
2022-11-17T20:18:47.895Z,72.10
2022-11-17T20:21:18.640Z,72.50
2022-11-17T20:23:52.354Z,73.40
2022-11-17T20:26:28.125Z,73.90
2022-11-17T20:29:02.842Z,71.20
2022-11-17T20:31:35.334Z,72.90
2022-11-17T20:34:07.744Z,73.00
2022-11-17T20:36:38.606Z,72.90
2022-11-17T20:39:14.194Z,73.20
2022-11-17T20:41:45.227Z,73.00
2022-11-17T20:44:26.347Z,73.00
2022-11-17T20:46:58.750Z,73.20
2022-11-17T20:49:34.192Z,72.10
2022-11-17T20:52:13.054Z,69.50
2022-11-17T20:54:47.530Z,70.00
2022-11-17T20:57:21.728Z,70.00
2022-11-17T20:59:52.590Z,69.80
2022-11-17T21:02:23.553Z,70.80
2022-11-17T21:04:54.493Z,68.90
2022-11-17T21:07:25.605Z,70.90
2022-11-17T21:09:59.821Z,71.50
2022-11-17T21:12:30.672Z,70.90
2022-11-17T21:15:01.546Z,69.30
2022-11-17T21:17:45.400Z,71.40
2022-11-17T21:20:19.238Z,71.00
2022-11-17T21:22:50.116Z,69.50
2022-11-17T21:25:23.713Z,69.40
2022-11-17T21:27:54.547Z,71.90
2022-11-17T21:30:25.619Z,71.00
2022-11-17T21:32:56.851Z,71.50
2022-11-17T21:35:27.772Z,71.30
2022-11-17T21:37:58.622Z,70.50
2022-11-17T21:40:32.115Z,70.60
2022-11-17T21:43:02.897Z,69.50
2022-11-17T21:45:35.657Z,72.30
2022-11-17T21:48:07.110Z,73.10
2022-11-17T21:50:40.450Z,72.90
2022-11-17T21:53:13.645Z,72.90
2022-11-17T21:55:51.850Z,70.80
2022-11-17T21:58:22.696Z,70.70
2022-11-17T22:00:57.290Z,69.90
2022-11-17T22:03:31.824Z,69.80
2022-11-17T22:06:14.532Z,71.20
2022-11-17T22:08:56.352Z,72.90
2022-11-17T22:11:40.771Z,70.80
2022-11-17T22:14:14.027Z,71.40
2022-11-17T22:16:46.643Z,71.60
2022-11-17T22:19:20.653Z,72.70
2022-11-17T22:21:53.574Z,73.40
2022-11-17T22:24:24.961Z,72.70
2022-11-17T22:26:58.319Z,72.70
2022-11-17T22:29:29.603Z,72.70
2022-11-17T22:32:01.931Z,74.90
2022-11-17T22:34:32.731Z,73.60
2022-11-17T22:37:03.562Z,72.70
2022-11-17T22:39:43.674Z,72.70
2022-11-17T22:42:18.970Z,73.40
2022-11-17T22:44:49.785Z,73.80
2022-11-17T22:47:20.573Z,71.80
2022-11-17T22:49:56.243Z,74.70
2022-11-17T22:52:30.468Z,74.80
2022-11-17T22:55:03.036Z,74.60
2022-11-17T22:57:36.386Z,72.70
2022-11-17T23:00:11.606Z,75.00
2022-11-17T23:02:42.556Z,79.60
2022-11-17T23:05:13.343Z,77.20
2022-11-17T23:07:44.263Z,77.60
2022-11-17T23:10:16.124Z,77.80
2022-11-17T23:12:49.798Z,77.80
2022-11-17T23:15:20.661Z,81.60
2022-11-17T23:17:59.042Z,84.40
2022-11-17T23:20:33.151Z,84.80
2022-11-17T23:23:10.544Z,89.20
2022-11-17T23:25:41.591Z,92.40
2022-11-17T23:28:14.984Z,93.70
2022-11-17T23:30:47.754Z,99.90
2022-11-17T23:33:18.963Z,99.90
2022-11-17T23:35:50.000Z,99.90
2022-11-17T23:38:21.723Z,99.90
2022-11-17T23:40:53.127Z,99.90
2022-11-17T23:43:27.221Z,99.90
2022-11-17T23:45:59.926Z,99.90
2022-11-17T23:48:33.308Z,99.90
2022-11-17T23:51:08.481Z,99.90
2022-11-17T23:53:40.902Z,99.90
2022-11-17T23:56:13.293Z,99.90
2022-11-17T23:58:46.845Z,99.90
